sensor_id;sensor_type;location;lat;lon;timestamp;temperature;humidity
22290;DHT22;11313;50.116;8.424;2022-10-19T00:03:04;22.10;63.80
22290;DHT22;11313;50.116;8.424;2022-10-19T00:09:03;22.10;63.90
22290;DHT22;11313;50.116;8.424;2022-10-19T00:11:52;22.10;64.00
22290;DHT22;11313;50.116;8.424;2022-10-19T00:14:43;22.10;63.90
22290;DHT22;11313;50.116;8.424;2022-10-19T00:21:18;22.00;64.00
22290;DHT22;11313;50.116;8.424;2022-10-19T00:24:15;22.00;64.00
22290;DHT22;11313;50.116;8.424;2022-10-19T00:30:26;22.10;64.10
22290;DHT22;11313;50.116;8.424;2022-10-19T00:42:54;22.10;64.10
22290;DHT22;11313;50.116;8.424;2022-10-19T00:45:38;22.00;64.10
22290;DHT22;11313;50.116;8.424;2022-10-19T00:48:32;22.10;64.10
22290;DHT22;11313;50.116;8.424;2022-10-19T01:01:50;22.10;64.20
22290;DHT22;11313;50.116;8.424;2022-10-19T01:04:58;22.10;64.10
22290;DHT22;11313;50.116;8.424;2022-10-19T01:25:38;22.10;64.90
22290;DHT22;11313;50.116;8.424;2022-10-19T01:43:02;22.10;64.40
22290;DHT22;11313;50.116;8.424;2022-10-19T01:56:06;22.00;64.20
22290;DHT22;11313;50.116;8.424;2022-10-19T02:17:23;22.10;64.20
22290;DHT22;11313;50.116;8.424;2022-10-19T02:24:11;22.10;64.20
22290;DHT22;11313;50.116;8.424;2022-10-19T02:27:08;22.00;64.20
22290;DHT22;11313;50.116;8.424;2022-10-19T02:40:30;22.10;64.30
22290;DHT22;11313;50.116;8.424;2022-10-19T02:57:25;22.00;64.10
22290;DHT22;11313;50.116;8.424;2022-10-19T03:58:55;22.00;64.20
22290;DHT22;11313;50.116;8.424;2022-10-19T05:11:58;21.90;64.30
22290;DHT22;11313;50.116;8.424;2022-10-19T05:14:26;21.90;64.30
22290;DHT22;11313;50.116;8.424;2022-10-19T05:16:54;21.90;64.30
22290;DHT22;11313;50.116;8.424;2022-10-19T05:19:27;22.00;64.40
22290;DHT22;11313;50.116;8.424;2022-10-19T05:22:00;21.90;64.30
22290;DHT22;11313;50.116;8.424;2022-10-19T05:24:26;21.80;64.30
22290;DHT22;11313;50.116;8.424;2022-10-19T05:27:06;21.90;64.30
22290;DHT22;11313;50.116;8.424;2022-10-19T05:30:02;21.90;64.40
22290;DHT22;11313;50.116;8.424;2022-10-19T05:32:30;21.90;64.40
22290;DHT22;11313;50.116;8.424;2022-10-19T05:35:10;22.00;64.60
22290;DHT22;11313;50.116;8.424;2022-10-19T05:37:55;21.90;64.50
22290;DHT22;11313;50.116;8.424;2022-10-19T05:40:30;21.90;64.60
22290;DHT22;11313;50.116;8.424;2022-10-19T05:43:11;21.90;64.50
22290;DHT22;11313;50.116;8.424;2022-10-19T05:45:46;21.90;64.50
22290;DHT22;11313;50.116;8.424;2022-10-19T05:48:16;21.90;64.40
22290;DHT22;11313;50.116;8.424;2022-10-19T05:51:13;22.20;64.60
22290;DHT22;11313;50.116;8.424;2022-10-19T05:53:46;21.90;64.40
22290;DHT22;11313;50.116;8.424;2022-10-19T05:56:22;22.10;64.50
22290;DHT22;11313;50.116;8.424;2022-10-19T05:59:00;21.90;64.30
22290;DHT22;11313;50.116;8.424;2022-10-19T06:01:29;21.90;64.20
22290;DHT22;11313;50.116;8.424;2022-10-19T06:04:39;21.90;64.20
22290;DHT22;11313;50.116;8.424;2022-10-19T06:07:26;21.90;64.10
22290;DHT22;11313;50.116;8.424;2022-10-19T06:10:12;21.90;64.10
22290;DHT22;11313;50.116;8.424;2022-10-19T06:13:03;21.70;63.90
22290;DHT22;11313;50.116;8.424;2022-10-19T06:15:36;21.90;64.00
22290;DHT22;11313;50.116;8.424;2022-10-19T06:18:39;21.90;63.90
22290;DHT22;11313;50.116;8.424;2022-10-19T06:24:04;21.90;63.90
22290;DHT22;11313;50.116;8.424;2022-10-19T06:26:45;21.90;63.80
22290;DHT22;11313;50.116;8.424;2022-10-19T06:29:20;21.90;63.80
22290;DHT22;11313;50.116;8.424;2022-10-19T06:31:50;21.90;63.70
22290;DHT22;11313;50.116;8.424;2022-10-19T06:34:39;21.90;63.70
22290;DHT22;11313;50.116;8.424;2022-10-19T06:37:25;21.90;64.40
22290;DHT22;11313;50.116;8.424;2022-10-19T06:39:55;21.90;63.60
22290;DHT22;11313;50.116;8.424;2022-10-19T06:42:38;21.90;63.50
22290;DHT22;11313;50.116;8.424;2022-10-19T06:45:11;21.80;63.40
22290;DHT22;11313;50.116;8.424;2022-10-19T06:47:39;21.90;63.40
22290;DHT22;11313;50.116;8.424;2022-10-19T06:50:14;21.80;64.10
22290;DHT22;11313;50.116;8.424;2022-10-19T06:52:57;21.80;63.30
22290;DHT22;11313;50.116;8.424;2022-10-19T06:55:39;21.80;63.30
22290;DHT22;11313;50.116;8.424;2022-10-19T06:58:07;21.90;63.30
22290;DHT22;11313;50.116;8.424;2022-10-19T07:00:42;21.80;63.20
22290;DHT22;11313;50.116;8.424;2022-10-19T07:03:29;21.90;63.30
22290;DHT22;11313;50.116;8.424;2022-10-19T07:06:01;21.80;63.40
22290;DHT22;11313;50.116;8.424;2022-10-19T07:08:30;21.90;63.60
22290;DHT22;11313;50.116;8.424;2022-10-19T07:11:27;21.80;63.60
22290;DHT22;11313;50.116;8.424;2022-10-19T07:13:58;21.80;63.70
22290;DHT22;11313;50.116;8.424;2022-10-19T07:16:47;21.90;63.90
22290;DHT22;11313;50.116;8.424;2022-10-19T07:19:25;21.80;63.80
22290;DHT22;11313;50.116;8.424;2022-10-19T07:22:24;21.80;63.80
22290;DHT22;11313;50.116;8.424;2022-10-19T07:25:12;22.00;63.90
22290;DHT22;11313;50.116;8.424;2022-10-19T07:27:57;21.90;63.90
22290;DHT22;11313;50.116;8.424;2022-10-19T07:30:55;21.80;63.70
22290;DHT22;11313;50.116;8.424;2022-10-19T07:37:00;21.80;63.70
22290;DHT22;11313;50.116;8.424;2022-10-19T07:40:12;21.90;63.70
22290;DHT22;11313;50.116;8.424;2022-10-19T07:43:16;21.90;63.70
22290;DHT22;11313;50.116;8.424;2022-10-19T07:46:02;21.90;63.60
22290;DHT22;11313;50.116;8.424;2022-10-19T07:49:09;21.80;63.60
22290;DHT22;11313;50.116;8.424;2022-10-19T07:51:47;21.90;63.60
22290;DHT22;11313;50.116;8.424;2022-10-19T07:54:41;21.90;63.60
22290;DHT22;11313;50.116;8.424;2022-10-19T07:57:22;21.90;63.60
22290;DHT22;11313;50.116;8.424;2022-10-19T07:59:53;21.90;63.50
22290;DHT22;11313;50.116;8.424;2022-10-19T08:02:40;21.90;63.50
22290;DHT22;11313;50.116;8.424;2022-10-19T08:05:14;21.90;63.50
22290;DHT22;11313;50.116;8.424;2022-10-19T08:07:42;21.80;63.40
22290;DHT22;11313;50.116;8.424;2022-10-19T08:10:20;21.90;63.40
22290;DHT22;11313;50.116;8.424;2022-10-19T08:12:49;21.80;63.40
22290;DHT22;11313;50.116;8.424;2022-10-19T08:15:19;21.90;63.40
22290;DHT22;11313;50.116;8.424;2022-10-19T08:18:04;21.90;63.30
22290;DHT22;11313;50.116;8.424;2022-10-19T08:20:35;21.80;63.30
22290;DHT22;11313;50.116;8.424;2022-10-19T08:23:11;21.90;63.30
22290;DHT22;11313;50.116;8.424;2022-10-19T08:25:37;21.90;63.30
22290;DHT22;11313;50.116;8.424;2022-10-19T08:28:02;21.90;63.30
22290;DHT22;11313;50.116;8.424;2022-10-19T08:30:28;21.90;63.20
22290;DHT22;11313;50.116;8.424;2022-10-19T08:32:53;21.90;63.20
22290;DHT22;11313;50.116;8.424;2022-10-19T08:35:19;21.90;63.20
22290;DHT22;11313;50.116;8.424;2022-10-19T08:37:44;21.90;63.20
22290;DHT22;11313;50.116;8.424;2022-10-19T08:40:19;21.90;63.10
22290;DHT22;11313;50.116;8.424;2022-10-19T08:43:04;21.80;63.00
22290;DHT22;11313;50.116;8.424;2022-10-19T08:48:36;21.90;63.10
22290;DHT22;11313;50.116;8.424;2022-10-19T08:50:58;21.90;63.10
22290;DHT22;11313;50.116;8.424;2022-10-19T08:58:53;21.90;62.90
22290;DHT22;11313;50.116;8.424;2022-10-19T09:01:42;21.90;62.80
22290;DHT22;11313;50.116;8.424;2022-10-19T09:06:52;21.90;62.70
22290;DHT22;11313;50.116;8.424;2022-10-19T09:09:21;21.90;62.70
22290;DHT22;11313;50.116;8.424;2022-10-19T09:11:50;21.90;62.60
22290;DHT22;11313;50.116;8.424;2022-10-19T09:14:27;21.80;62.50
22290;DHT22;11313;50.116;8.424;2022-10-19T09:17:00;21.90;62.50
22290;DHT22;11313;50.116;8.424;2022-10-19T09:19:27;21.80;62.50
22290;DHT22;11313;50.116;8.424;2022-10-19T09:22:22;21.90;62.50
22290;DHT22;11313;50.116;8.424;2022-10-19T09:24:53;21.90;62.50
22290;DHT22;11313;50.116;8.424;2022-10-19T09:27:24;21.90;62.40
22290;DHT22;11313;50.116;8.424;2022-10-19T09:29:57;21.80;62.40
22290;DHT22;11313;50.116;8.424;2022-10-19T09:32:38;21.80;62.40
22290;DHT22;11313;50.116;8.424;2022-10-19T09:37:45;21.90;62.40
22290;DHT22;11313;50.116;8.424;2022-10-19T09:40:24;21.90;62.40
22290;DHT22;11313;50.116;8.424;2022-10-19T09:42:50;21.90;62.30
22290;DHT22;11313;50.116;8.424;2022-10-19T09:45:46;21.90;62.30
22290;DHT22;11313;50.116;8.424;2022-10-19T09:48:38;21.90;62.30
22290;DHT22;11313;50.116;8.424;2022-10-19T09:51:11;21.90;62.30
22290;DHT22;11313;50.116;8.424;2022-10-19T09:53:37;21.90;62.30
22290;DHT22;11313;50.116;8.424;2022-10-19T09:56:17;21.90;62.30
22290;DHT22;11313;50.116;8.424;2022-10-19T09:58:52;21.90;62.30
22290;DHT22;11313;50.116;8.424;2022-10-19T10:01:35;21.90;63.00
22290;DHT22;11313;50.116;8.424;2022-10-19T10:06:30;21.90;62.30
22290;DHT22;11313;50.116;8.424;2022-10-19T10:08:57;21.90;62.30
22290;DHT22;11313;50.116;8.424;2022-10-19T10:11:26;21.90;62.30
22290;DHT22;11313;50.116;8.424;2022-10-19T10:13:54;21.90;62.30
22290;DHT22;11313;50.116;8.424;2022-10-19T10:16:26;21.90;62.30
22290;DHT22;11313;50.116;8.424;2022-10-19T10:19:02;21.90;62.30
22290;DHT22;11313;50.116;8.424;2022-10-19T10:21:42;21.90;62.30
22290;DHT22;11313;50.116;8.424;2022-10-19T10:26:41;21.90;62.30
22290;DHT22;11313;50.116;8.424;2022-10-19T10:29:32;21.90;62.30
22290;DHT22;11313;50.116;8.424;2022-10-19T10:32:06;21.90;62.30
22290;DHT22;11313;50.116;8.424;2022-10-19T10:34:45;21.90;62.30
22290;DHT22;11313;50.116;8.424;2022-10-19T10:37:27;21.90;62.30
22290;DHT22;11313;50.116;8.424;2022-10-19T10:39:55;21.90;62.30
22290;DHT22;11313;50.116;8.424;2022-10-19T10:42:29;21.90;62.30
22290;DHT22;11313;50.116;8.424;2022-10-19T10:44:56;21.90;62.30
22290;DHT22;11313;50.116;8.424;2022-10-19T10:47:22;21.90;62.30
22290;DHT22;11313;50.116;8.424;2022-10-19T10:50:03;21.90;62.30
22290;DHT22;11313;50.116;8.424;2022-10-19T10:52:30;21.90;62.30
22290;DHT22;11313;50.116;8.424;2022-10-19T10:57:39;21.90;62.40
22290;DHT22;11313;50.116;8.424;2022-10-19T11:00:12;21.90;62.30
22290;DHT22;11313;50.116;8.424;2022-10-19T11:02:54;21.90;62.40
22290;DHT22;11313;50.116;8.424;2022-10-19T11:07:53;21.90;62.30
22290;DHT22;11313;50.116;8.424;2022-10-19T11:10:27;21.90;62.30
22290;DHT22;11313;50.116;8.424;2022-10-19T11:13:57;22.00;62.40
22290;DHT22;11313;50.116;8.424;2022-10-19T11:16:18;21.90;62.40
22290;DHT22;11313;50.116;8.424;2022-10-19T11:18:47;21.90;62.40
22290;DHT22;11313;50.116;8.424;2022-10-19T11:21:30;22.00;62.40
22290;DHT22;11313;50.116;8.424;2022-10-19T11:24:20;21.90;62.40
22290;DHT22;11313;50.116;8.424;2022-10-19T11:26:51;22.00;62.40
22290;DHT22;11313;50.116;8.424;2022-10-19T11:29:46;21.90;62.40
22290;DHT22;11313;50.116;8.424;2022-10-19T11:32:25;21.90;62.40
22290;DHT22;11313;50.116;8.424;2022-10-19T11:43:04;22.00;62.40
22290;DHT22;11313;50.116;8.424;2022-10-19T11:46:15;21.90;62.40
22290;DHT22;11313;50.116;8.424;2022-10-19T11:51:52;21.90;62.40
22290;DHT22;11313;50.116;8.424;2022-10-19T11:54:49;21.90;62.30
22290;DHT22;11313;50.116;8.424;2022-10-19T11:57:24;21.90;62.30
22290;DHT22;11313;50.116;8.424;2022-10-19T12:00:08;21.90;62.30
22290;DHT22;11313;50.116;8.424;2022-10-19T12:14:07;22.00;62.50
22290;DHT22;11313;50.116;8.424;2022-10-19T12:16:45;22.00;62.50
22290;DHT22;11313;50.116;8.424;2022-10-19T12:19:18;22.00;62.50
22290;DHT22;11313;50.116;8.424;2022-10-19T12:21:45;22.00;62.50
22290;DHT22;11313;50.116;8.424;2022-10-19T12:24:16;22.00;62.50
22290;DHT22;11313;50.116;8.424;2022-10-19T12:26:43;22.00;63.20
22290;DHT22;11313;50.116;8.424;2022-10-19T12:29:39;22.00;62.50
22290;DHT22;11313;50.116;8.424;2022-10-19T12:32:06;22.00;62.50
22290;DHT22;11313;50.116;8.424;2022-10-19T12:37:30;22.00;62.40
22290;DHT22;11313;50.116;8.424;2022-10-19T12:43:08;22.00;62.40
22290;DHT22;11313;50.116;8.424;2022-10-19T12:45:40;22.00;62.40
22290;DHT22;11313;50.116;8.424;2022-10-19T12:53:26;22.00;62.40
22290;DHT22;11313;50.116;8.424;2022-10-19T12:56:00;22.00;62.40
22290;DHT22;11313;50.116;8.424;2022-10-19T12:58:37;22.00;62.40
22290;DHT22;11313;50.116;8.424;2022-10-19T13:01:05;22.00;62.50
22290;DHT22;11313;50.116;8.424;2022-10-19T13:03:37;22.00;62.50
22290;DHT22;11313;50.116;8.424;2022-10-19T13:06:28;22.00;62.50
22290;DHT22;11313;50.116;8.424;2022-10-19T13:08:57;22.00;62.50
22290;DHT22;11313;50.116;8.424;2022-10-19T13:11:23;22.00;62.50
22290;DHT22;11313;50.116;8.424;2022-10-19T13:16:55;22.00;62.60
22290;DHT22;11313;50.116;8.424;2022-10-19T13:19:21;22.00;62.60
22290;DHT22;11313;50.116;8.424;2022-10-19T13:21:48;22.00;62.60
22290;DHT22;11313;50.116;8.424;2022-10-19T13:32:39;22.00;62.60
22290;DHT22;11313;50.116;8.424;2022-10-19T13:35:22;22.00;62.60
22290;DHT22;11313;50.116;8.424;2022-10-19T13:38:08;22.00;62.60
22290;DHT22;11313;50.116;8.424;2022-10-19T13:40:55;22.00;62.60
22290;DHT22;11313;50.116;8.424;2022-10-19T13:43:26;22.00;62.60
22290;DHT22;11313;50.116;8.424;2022-10-19T13:46:12;22.00;62.60
22290;DHT22;11313;50.116;8.424;2022-10-19T13:48:47;22.00;62.50
22290;DHT22;11313;50.116;8.424;2022-10-19T13:57:04;22.00;62.60
22290;DHT22;11313;50.116;8.424;2022-10-19T13:59:53;22.00;62.60
22290;DHT22;11313;50.116;8.424;2022-10-19T14:08:37;22.00;62.70
22290;DHT22;11313;50.116;8.424;2022-10-19T14:11:34;22.00;62.70
22290;DHT22;11313;50.116;8.424;2022-10-19T14:16:48;22.00;62.70
22290;DHT22;11313;50.116;8.424;2022-10-19T14:21:59;22.00;62.70
22290;DHT22;11313;50.116;8.424;2022-10-19T14:24:28;22.00;62.70
22290;DHT22;11313;50.116;8.424;2022-10-19T14:26:55;22.00;62.70
22290;DHT22;11313;50.116;8.424;2022-10-19T14:29:20;22.00;62.70
22290;DHT22;11313;50.116;8.424;2022-10-19T14:31:46;22.10;62.70
22290;DHT22;11313;50.116;8.424;2022-10-19T14:34:13;22.00;62.70
22290;DHT22;11313;50.116;8.424;2022-10-19T14:36:44;22.00;62.60
22290;DHT22;11313;50.116;8.424;2022-10-19T14:39:22;22.00;62.60
22290;DHT22;11313;50.116;8.424;2022-10-19T14:41:52;22.00;62.70
22290;DHT22;11313;50.116;8.424;2022-10-19T14:44:42;22.00;62.60
22290;DHT22;11313;50.116;8.424;2022-10-19T14:47:20;22.00;62.60
22290;DHT22;11313;50.116;8.424;2022-10-19T14:49:46;22.00;62.60
22290;DHT22;11313;50.116;8.424;2022-10-19T14:52:16;22.00;62.60
22290;DHT22;11313;50.116;8.424;2022-10-19T14:54:47;22.00;62.50
22290;DHT22;11313;50.116;8.424;2022-10-19T15:00:16;22.00;62.50
22290;DHT22;11313;50.116;8.424;2022-10-19T15:02:45;22.00;62.50
22290;DHT22;11313;50.116;8.424;2022-10-19T15:05:25;22.10;62.60
22290;DHT22;11313;50.116;8.424;2022-10-19T15:07:52;22.00;62.50
22290;DHT22;11313;50.116;8.424;2022-10-19T15:10:29;22.00;62.60
22290;DHT22;11313;50.116;8.424;2022-10-19T15:13:01;22.00;62.50
22290;DHT22;11313;50.116;8.424;2022-10-19T15:15:32;22.00;62.50
22290;DHT22;11313;50.116;8.424;2022-10-19T15:20:35;22.00;62.60
22290;DHT22;11313;50.116;8.424;2022-10-19T15:23:32;22.00;62.50
22290;DHT22;11313;50.116;8.424;2022-10-19T15:26:00;22.00;62.50
22290;DHT22;11313;50.116;8.424;2022-10-19T15:28:32;22.00;62.50
22290;DHT22;11313;50.116;8.424;2022-10-19T15:31:19;22.00;62.50
22290;DHT22;11313;50.116;8.424;2022-10-19T15:33:50;22.00;62.50
22290;DHT22;11313;50.116;8.424;2022-10-19T15:36:17;22.00;62.50
22290;DHT22;11313;50.116;8.424;2022-10-19T15:41:31;22.00;62.50
22290;DHT22;11313;50.116;8.424;2022-10-19T15:43:58;22.00;62.60
22290;DHT22;11313;50.116;8.424;2022-10-19T15:49:00;22.00;62.30
22290;DHT22;11313;50.116;8.424;2022-10-19T15:53:57;22.00;62.50
22290;DHT22;11313;50.116;8.424;2022-10-19T15:56:24;22.00;62.50
22290;DHT22;11313;50.116;8.424;2022-10-19T15:58:52;22.00;62.80
22290;DHT22;11313;50.116;8.424;2022-10-19T16:01:21;22.00;62.50
22290;DHT22;11313;50.116;8.424;2022-10-19T16:03:47;22.00;62.60
22290;DHT22;11313;50.116;8.424;2022-10-19T16:06:13;22.00;62.50
22290;DHT22;11313;50.116;8.424;2022-10-19T16:08:39;22.00;62.50
22290;DHT22;11313;50.116;8.424;2022-10-19T16:11:10;22.00;62.50
22290;DHT22;11313;50.116;8.424;2022-10-19T16:13:36;22.00;62.50
22290;DHT22;11313;50.116;8.424;2022-10-19T16:16:04;22.00;62.50
22290;DHT22;11313;50.116;8.424;2022-10-19T16:18:30;22.00;63.20
22290;DHT22;11313;50.116;8.424;2022-10-19T16:20:55;22.00;62.50
22290;DHT22;11313;50.116;8.424;2022-10-19T16:23:21;22.00;62.50
22290;DHT22;11313;50.116;8.424;2022-10-19T16:25:47;22.00;62.40
22290;DHT22;11313;50.116;8.424;2022-10-19T16:28:12;22.00;62.50
22290;DHT22;11313;50.116;8.424;2022-10-19T16:30:38;22.00;62.40
22290;DHT22;11313;50.116;8.424;2022-10-19T16:33:03;22.00;62.40
22290;DHT22;11313;50.116;8.424;2022-10-19T16:35:29;22.00;62.40
22290;DHT22;11313;50.116;8.424;2022-10-19T16:37:54;22.00;62.40
22290;DHT22;11313;50.116;8.424;2022-10-19T16:40:20;22.00;62.40
22290;DHT22;11313;50.116;8.424;2022-10-19T16:42:45;22.00;62.40
22290;DHT22;11313;50.116;8.424;2022-10-19T16:45:11;22.00;62.40
22290;DHT22;11313;50.116;8.424;2022-10-19T16:47:36;22.00;62.40
22290;DHT22;11313;50.116;8.424;2022-10-19T16:50:04;22.00;62.40
22290;DHT22;11313;50.116;8.424;2022-10-19T16:52:30;22.00;62.30
22290;DHT22;11313;50.116;8.424;2022-10-19T16:54:57;22.00;62.30
22290;DHT22;11313;50.116;8.424;2022-10-19T16:57:23;22.00;62.30
22290;DHT22;11313;50.116;8.424;2022-10-19T16:59:50;22.00;62.30
22290;DHT22;11313;50.116;8.424;2022-10-19T17:02:17;22.00;62.30
22290;DHT22;11313;50.116;8.424;2022-10-19T17:04:42;22.00;62.30
22290;DHT22;11313;50.116;8.424;2022-10-19T17:07:08;22.00;62.30
22290;DHT22;11313;50.116;8.424;2022-10-19T17:09:34;22.00;62.30
22290;DHT22;11313;50.116;8.424;2022-10-19T17:11:59;22.00;63.00
22290;DHT22;11313;50.116;8.424;2022-10-19T17:14:25;22.00;62.20
22290;DHT22;11313;50.116;8.424;2022-10-19T17:16:50;22.00;62.20
22290;DHT22;11313;50.116;8.424;2022-10-19T17:19:16;22.00;62.30
22290;DHT22;11313;50.116;8.424;2022-10-19T17:21:41;22.00;62.20
22290;DHT22;11313;50.116;8.424;2022-10-19T17:24:12;22.00;62.20
22290;DHT22;11313;50.116;8.424;2022-10-19T17:26:40;22.00;62.30
22290;DHT22;11313;50.116;8.424;2022-10-19T17:29:12;22.00;62.30
22290;DHT22;11313;50.116;8.424;2022-10-19T17:31:39;22.00;62.30
22290;DHT22;11313;50.116;8.424;2022-10-19T17:34:05;22.00;62.30
22290;DHT22;11313;50.116;8.424;2022-10-19T17:36:36;22.00;62.30
22290;DHT22;11313;50.116;8.424;2022-10-19T17:39:12;22.00;62.30
22290;DHT22;11313;50.116;8.424;2022-10-19T17:41:38;22.00;62.30
22290;DHT22;11313;50.116;8.424;2022-10-19T17:44:04;22.00;62.30
22290;DHT22;11313;50.116;8.424;2022-10-19T17:46:32;22.00;62.30
22290;DHT22;11313;50.116;8.424;2022-10-19T17:48:58;22.00;62.30
22290;DHT22;11313;50.116;8.424;2022-10-19T17:51:28;22.00;62.30
22290;DHT22;11313;50.116;8.424;2022-10-19T17:53:56;22.00;62.30
22290;DHT22;11313;50.116;8.424;2022-10-19T17:56:23;22.00;62.30
22290;DHT22;11313;50.116;8.424;2022-10-19T17:58:48;22.00;62.30
22290;DHT22;11313;50.116;8.424;2022-10-19T18:01:16;22.00;62.30
22290;DHT22;11313;50.116;8.424;2022-10-19T18:03:41;22.00;62.30
22290;DHT22;11313;50.116;8.424;2022-10-19T18:08:37;22.00;62.20
22290;DHT22;11313;50.116;8.424;2022-10-19T18:11:09;22.00;62.20
22290;DHT22;11313;50.116;8.424;2022-10-19T18:13:35;22.00;62.20
22290;DHT22;11313;50.116;8.424;2022-10-19T18:16:03;22.00;62.20
22290;DHT22;11313;50.116;8.424;2022-10-19T18:18:31;22.00;62.20
22290;DHT22;11313;50.116;8.424;2022-10-19T18:20:57;22.00;62.20
22290;DHT22;11313;50.116;8.424;2022-10-19T18:23:22;22.00;62.20
22290;DHT22;11313;50.116;8.424;2022-10-19T18:25:48;22.00;62.20
22290;DHT22;11313;50.116;8.424;2022-10-19T18:28:15;22.00;62.20
22290;DHT22;11313;50.116;8.424;2022-10-19T18:30:41;22.00;62.20
22290;DHT22;11313;50.116;8.424;2022-10-19T18:33:07;22.00;62.10
22290;DHT22;11313;50.116;8.424;2022-10-19T18:35:38;22.00;62.10
22290;DHT22;11313;50.116;8.424;2022-10-19T18:38:04;22.00;62.10
22290;DHT22;11313;50.116;8.424;2022-10-19T18:40:33;22.00;62.10
22290;DHT22;11313;50.116;8.424;2022-10-19T18:42:59;22.00;62.10
22290;DHT22;11313;50.116;8.424;2022-10-19T18:45:24;22.00;62.10
22290;DHT22;11313;50.116;8.424;2022-10-19T18:47:50;22.00;62.10
22290;DHT22;11313;50.116;8.424;2022-10-19T18:50:15;22.00;62.10
22290;DHT22;11313;50.116;8.424;2022-10-19T18:52:42;22.00;62.10
22290;DHT22;11313;50.116;8.424;2022-10-19T18:55:08;22.00;62.10
22290;DHT22;11313;50.116;8.424;2022-10-19T18:57:33;22.00;62.10
22290;DHT22;11313;50.116;8.424;2022-10-19T18:59:59;22.00;62.10
22290;DHT22;11313;50.116;8.424;2022-10-19T19:02:24;22.00;62.00
22290;DHT22;11313;50.116;8.424;2022-10-19T19:04:50;22.00;62.10
22290;DHT22;11313;50.116;8.424;2022-10-19T19:07:15;22.00;62.00
22290;DHT22;11313;50.116;8.424;2022-10-19T19:09:41;21.90;62.00
22290;DHT22;11313;50.116;8.424;2022-10-19T19:12:08;22.00;62.10
22290;DHT22;11313;50.116;8.424;2022-10-19T19:14:33;22.00;62.00
22290;DHT22;11313;50.116;8.424;2022-10-19T19:16:59;22.00;62.00
22290;DHT22;11313;50.116;8.424;2022-10-19T19:19:25;21.90;61.90
22290;DHT22;11313;50.116;8.424;2022-10-19T19:21:52;22.00;62.00
22290;DHT22;11313;50.116;8.424;2022-10-19T19:24:20;22.00;62.00
22290;DHT22;11313;50.116;8.424;2022-10-19T19:26:51;21.90;61.90
22290;DHT22;11313;50.116;8.424;2022-10-19T19:29:17;22.00;61.90
22290;DHT22;11313;50.116;8.424;2022-10-19T19:31:43;21.90;61.90
22290;DHT22;11313;50.116;8.424;2022-10-19T19:34:08;22.00;61.90
22290;DHT22;11313;50.116;8.424;2022-10-19T19:36:35;21.90;61.80
22290;DHT22;11313;50.116;8.424;2022-10-19T19:39:02;21.90;61.80
22290;DHT22;11313;50.116;8.424;2022-10-19T19:41:28;21.90;61.80
22290;DHT22;11313;50.116;8.424;2022-10-19T19:43:55;21.90;61.80
22290;DHT22;11313;50.116;8.424;2022-10-19T19:46:22;21.90;61.80
22290;DHT22;11313;50.116;8.424;2022-10-19T19:48:48;21.90;61.80
22290;DHT22;11313;50.116;8.424;2022-10-19T19:51:19;21.90;61.80
22290;DHT22;11313;50.116;8.424;2022-10-19T19:53:46;21.90;61.80
22290;DHT22;11313;50.116;8.424;2022-10-19T19:56:13;21.90;61.80
22290;DHT22;11313;50.116;8.424;2022-10-19T19:58:39;22.00;61.80
22290;DHT22;11313;50.116;8.424;2022-10-19T20:01:18;21.90;61.80
22290;DHT22;11313;50.116;8.424;2022-10-19T20:03:45;21.90;61.80
22290;DHT22;11313;50.116;8.424;2022-10-19T20:06:12;21.90;61.80
22290;DHT22;11313;50.116;8.424;2022-10-19T20:08:38;21.90;61.70
22290;DHT22;11313;50.116;8.424;2022-10-19T20:11:07;21.90;61.80
22290;DHT22;11313;50.116;8.424;2022-10-19T20:13:33;21.90;61.70
22290;DHT22;11313;50.116;8.424;2022-10-19T20:16:15;21.90;61.80
22290;DHT22;11313;50.116;8.424;2022-10-19T20:18:44;21.90;61.70
22290;DHT22;11313;50.116;8.424;2022-10-19T20:21:11;21.90;61.70
22290;DHT22;11313;50.116;8.424;2022-10-19T20:23:36;22.00;61.80
22290;DHT22;11313;50.116;8.424;2022-10-19T20:26:03;21.90;61.80
22290;DHT22;11313;50.116;8.424;2022-10-19T20:28:31;21.90;61.80
22290;DHT22;11313;50.116;8.424;2022-10-19T20:31:02;21.90;61.80
22290;DHT22;11313;50.116;8.424;2022-10-19T20:33:30;21.90;61.90
22290;DHT22;11313;50.116;8.424;2022-10-19T20:35:55;21.90;61.90
22290;DHT22;11313;50.116;8.424;2022-10-19T20:38:21;21.90;62.00
22290;DHT22;11313;50.116;8.424;2022-10-19T20:40:46;21.90;61.90
22290;DHT22;11313;50.116;8.424;2022-10-19T20:43:12;21.90;62.00
22290;DHT22;11313;50.116;8.424;2022-10-19T20:45:42;21.90;62.10
22290;DHT22;11313;50.116;8.424;2022-10-19T20:48:08;21.90;62.00
22290;DHT22;11313;50.116;8.424;2022-10-19T20:50:33;21.90;62.10
22290;DHT22;11313;50.116;8.424;2022-10-19T20:52:59;21.90;62.10
22290;DHT22;11313;50.116;8.424;2022-10-19T20:55:25;21.90;62.00
22290;DHT22;11313;50.116;8.424;2022-10-19T20:57:50;21.90;62.10
22290;DHT22;11313;50.116;8.424;2022-10-19T21:00:16;21.90;62.10
22290;DHT22;11313;50.116;8.424;2022-10-19T21:02:43;21.90;62.10
22290;DHT22;11313;50.116;8.424;2022-10-19T21:05:09;21.90;62.10
22290;DHT22;11313;50.116;8.424;2022-10-19T21:07:35;21.90;62.10
22290;DHT22;11313;50.116;8.424;2022-10-19T21:10:00;21.90;62.10
22290;DHT22;11313;50.116;8.424;2022-10-19T21:12:26;21.90;62.10
22290;DHT22;11313;50.116;8.424;2022-10-19T21:14:52;21.90;62.10
22290;DHT22;11313;50.116;8.424;2022-10-19T21:17:17;21.90;62.20
22290;DHT22;11313;50.116;8.424;2022-10-19T21:19:43;21.90;62.20
22290;DHT22;11313;50.116;8.424;2022-10-19T21:22:10;21.90;62.20
22290;DHT22;11313;50.116;8.424;2022-10-19T21:24:36;21.90;62.10
22290;DHT22;11313;50.116;8.424;2022-10-19T21:27:05;21.90;62.20
22290;DHT22;11313;50.116;8.424;2022-10-19T21:29:32;21.90;62.20
22290;DHT22;11313;50.116;8.424;2022-10-19T21:31:58;21.90;62.20
22290;DHT22;11313;50.116;8.424;2022-10-19T21:34:28;21.90;62.20
22290;DHT22;11313;50.116;8.424;2022-10-19T21:36:54;21.90;62.20
22290;DHT22;11313;50.116;8.424;2022-10-19T21:39:20;21.90;62.20
22290;DHT22;11313;50.116;8.424;2022-10-19T21:41:46;21.90;62.20
22290;DHT22;11313;50.116;8.424;2022-10-19T21:44:13;21.90;62.20
22290;DHT22;11313;50.116;8.424;2022-10-19T21:46:39;21.90;62.20
22290;DHT22;11313;50.116;8.424;2022-10-19T21:49:11;21.90;62.20
22290;DHT22;11313;50.116;8.424;2022-10-19T21:51:51;21.90;62.20
22290;DHT22;11313;50.116;8.424;2022-10-19T21:54:19;21.90;62.20
22290;DHT22;11313;50.116;8.424;2022-10-19T21:56:46;21.90;62.20
22290;DHT22;11313;50.116;8.424;2022-10-19T21:59:12;21.90;62.20
22290;DHT22;11313;50.116;8.424;2022-10-19T22:01:39;21.90;62.20
22290;DHT22;11313;50.116;8.424;2022-10-19T22:04:07;21.90;62.20
22290;DHT22;11313;50.116;8.424;2022-10-19T22:06:35;21.90;62.20
22290;DHT22;11313;50.116;8.424;2022-10-19T22:09:03;21.90;62.20